Time;durP1;ratioP1;P1;durP2;ratioP2;P2;SDS_P1;SDS_P2;PMS_P1;PMS_P2;Temp;Humidity;BMP_temperature;BMP_pressure;BME280_temperature;BME280_humidity;BME280_pressure;Samples;Min_cycle;Max_cycle;Signal;HPM_P1;HPM_P2
2022/06/14 00:01:23;;;;;;;6.20;4.20;;;;;;;;;;2073278;28;20235;-55
2022/06/14 00:02:23;;;;;;;4.72;4.20;;;;;;;;;;2072900;28;20712;-50
2022/06/14 00:03:25;;;;;;;5.38;4.65;;;;;;;;;;2073239;28;20275;-55
2022/06/14 00:04:26;;;;;;;7.28;4.22;;;;;;;;;;2072256;28;20181;-51
2022/06/14 00:05:26;;;;;;;6.78;4.40;;;;;;;;;;2073327;28;20286;-52
2022/06/14 00:06:28;;;;;;;5.35;4.35;;;;;;;;;;2073311;28;20241;-56
2022/06/14 00:07:28;;;;;;;5.15;4.63;;;;;;;;;;2073199;28;20187;-58
2022/06/14 00:08:29;;;;;;;6.15;4.32;;;;;;;;;;2072921;28;20169;-56
2022/06/14 00:09:30;;;;;;;5.05;4.65;;;;;;;;;;2073176;28;20192;-53
2022/06/14 00:10:30;;;;;;;5.93;4.38;;;;;;;;;;2072424;28;20278;-53
2022/06/14 00:11:32;;;;;;;5.30;4.32;;;;;;;;;;2072401;28;20193;-56
2022/06/14 00:12:33;;;;;;;8.35;4.35;;;;;;;;;;2073028;28;20622;-57
2022/06/14 00:13:33;;;;;;;4.90;4.43;;;;;;;;;;2072945;28;20169;-58
2022/06/14 00:14:33;;;;;;;6.40;4.55;;;;;;;;;;2071551;28;20177;-54
2022/06/14 00:15:34;;;;;;;6.70;4.47;;;;;;;;;;2064333;28;20193;-54
2022/06/14 00:16:34;;;;;;;4.68;4.28;;;;;;;;;;2072435;28;20658;-56
2022/06/14 00:17:35;;;;;;;5.38;4.15;;;;;;;;;;2073359;28;20684;-56
2022/06/14 00:18:36;;;;;;;5.13;4.50;;;;;;;;;;2072583;28;20180;-54
2022/06/14 00:19:36;;;;;;;6.10;4.45;;;;;;;;;;2072712;28;20193;-52
2022/06/14 00:20:36;;;;;;;6.22;5.15;;;;;;;;;;2073085;28;20196;-52
2022/06/14 00:21:36;;;;;;;8.05;5.55;;;;;;;;;;2072985;28;20188;-54
2022/06/14 00:22:37;;;;;;;7.60;4.50;;;;;;;;;;2072978;28;20185;-57
2022/06/14 00:23:38;;;;;;;7.80;5.22;;;;;;;;;;2073130;28;20173;-58
2022/06/14 00:24:38;;;;;;;7.40;4.45;;;;;;;;;;2072110;28;20192;-53
2022/06/14 00:25:40;;;;;;;5.45;4.55;;;;;;;;;;2072835;28;20173;-53
2022/06/14 00:26:41;;;;;;;5.28;4.70;;;;;;;;;;2072515;28;20252;-55
2022/06/14 00:27:41;;;;;;;5.20;4.38;;;;;;;;;;2073355;28;20716;-51
2022/06/14 00:28:42;;;;;;;5.85;4.50;;;;;;;;;;2073326;28;20630;-53
2022/06/14 00:29:42;;;;;;;6.10;4.32;;;;;;;;;;2072737;28;20215;-59
2022/06/14 00:30:44;;;;;;;7.43;4.65;;;;;;;;;;2072969;28;20177;-55
2022/06/14 00:31:45;;;;;;;6.45;4.68;;;;;;;;;;2073136;28;20165;-58
2022/06/14 00:32:46;;;;;;;7.50;4.90;;;;;;;;;;2073211;28;20169;-54
2022/06/14 00:33:46;;;;;;;10.32;4.70;;;;;;;;;;2074359;28;20671;-55
2022/06/14 00:34:47;;;;;;;5.88;4.32;;;;;;;;;;2073651;28;20740;-54
2022/06/14 00:35:47;;;;;;;5.85;4.38;;;;;;;;;;2075099;28;20165;-56
2022/06/14 00:36:52;;;;;;;5.45;4.90;;;;;;;;;;2075255;28;20231;-55
2022/06/14 00:37:53;;;;;;;6.70;4.78;;;;;;;;;;2074099;28;20165;-51
2022/06/14 00:38:54;;;;;;;6.00;4.53;;;;;;;;;;2074399;28;20222;-55
2022/06/14 00:39:54;;;;;;;6.63;5.70;;;;;;;;;;2074087;28;20185;-55
2022/06/14 00:40:55;;;;;;;6.97;4.82;;;;;;;;;;2074266;28;20528;-55
2022/06/14 00:41:56;;;;;;;6.60;4.72;;;;;;;;;;2073891;28;20235;-55
2022/06/14 00:42:57;;;;;;;8.93;4.85;;;;;;;;;;2074426;28;20184;-52
2022/06/14 00:43:58;;;;;;;7.70;4.88;;;;;;;;;;2073254;28;20247;-47
2022/06/14 00:45:04;;;;;;;5.50;4.40;;;;;;;;;;2072755;28;20255;-52
2022/06/14 00:46:07;;;;;;;7.65;4.97;;;;;;;;;;2073114;28;20161;-53
2022/06/14 00:47:14;;;;;;;6.63;4.80;;;;;;;;;;2073118;28;20235;-54
2022/06/14 00:48:15;;;;;;;5.13;4.10;;;;;;;;;;2072900;28;20263;-53
2022/06/14 00:49:17;;;;;;;5.45;4.88;;;;;;;;;;2073179;28;20589;-55
2022/06/14 00:50:20;;;;;;;6.18;4.70;;;;;;;;;;2073074;28;20173;-54
2022/06/14 00:51:23;;;;;;;4.82;4.35;;;;;;;;;;2073089;28;20252;-52
2022/06/14 00:52:25;;;;;;;5.47;4.68;;;;;;;;;;2073081;28;20227;-57
2022/06/14 00:53:28;;;;;;;5.25;4.75;;;;;;;;;;2073176;28;20165;-52
2022/06/14 00:54:34;;;;;;;7.70;5.30;;;;;;;;;;2072248;28;20191;-53
2022/06/14 00:55:42;;;;;;;8.40;5.00;;;;;;;;;;2073222;28;20163;-52
2022/06/14 00:56:46;;;;;;;7.57;5.10;;;;;;;;;;2072960;28;20185;-55
2022/06/14 00:57:49;;;;;;;5.75;5.30;;;;;;;;;;2072934;28;20169;-52
2022/06/14 00:59:02;;;;;;;7.00;5.13;;;;;;;;;;2073340;28;20207;-57
2022/06/14 01:00:02;;;;;;;6.05;4.72;;;;;;;;;;2073045;28;20200;-52
2022/06/14 01:01:08;;;;;;;6.40;5.03;;;;;;;;;;2073048;28;20176;-49
2022/06/14 01:02:14;;;;;;;6.22;5.05;;;;;;;;;;2072830;28;20193;-52
2022/06/14 01:03:18;;;;;;;5.95;4.82;;;;;;;;;;2072928;28;20173;-56
2022/06/14 01:04:22;;;;;;;8.68;4.90;;;;;;;;;;2072112;28;20544;-53
2022/06/14 01:05:25;;;;;;;8.07;5.32;;;;;;;;;;2072497;28;20288;-54
2022/06/14 01:06:44;;;;;;;6.00;5.40;;;;;;;;;;2072076;28;20169;-54
2022/06/14 01:07:46;;;;;;;8.60;5.60;;;;;;;;;;2074373;28;20583;-51
2022/06/14 01:08:48;;;;;;;8.43;5.65;;;;;;;;;;2074536;28;20169;-54
2022/06/14 01:09:50;;;;;;;7.32;5.68;;;;;;;;;;2074573;28;20181;-54
2022/06/14 01:10:51;;;;;;;6.72;5.03;;;;;;;;;;2067825;28;20177;-56
2022/06/14 01:11:55;;;;;;;7.53;5.60;;;;;;;;;;2069954;28;20176;-56
2022/06/14 01:12:58;;;;;;;8.00;5.85;;;;;;;;;;2074140;28;20169;-58
2022/06/14 01:13:59;;;;;;;9.30;6.57;;;;;;;;;;2073691;28;20260;-53
2022/06/14 01:15:04;;;;;;;7.53;5.95;;;;;;;;;;2074555;28;20169;-54
2022/06/14 01:16:04;;;;;;;7.57;5.72;;;;;;;;;;2074367;28;20251;-51
2022/06/14 01:17:05;;;;;;;9.85;6.15;;;;;;;;;;2073741;28;20239;-51
2022/06/14 01:18:07;;;;;;;6.38;5.68;;;;;;;;;;2074494;28;20173;-50
2022/06/14 01:19:12;;;;;;;8.90;6.13;;;;;;;;;;2074684;28;20649;-55
2022/06/14 01:20:14;;;;;;;5.78;5.28;;;;;;;;;;2073998;28;20204;-53
2022/06/14 01:21:15;;;;;;;10.32;5.68;;;;;;;;;;2072625;28;20195;-53
2022/06/14 01:22:18;;;;;;;6.22;5.20;;;;;;;;;;2074195;28;20180;-53
2022/06/14 01:23:19;;;;;;;5.93;5.10;;;;;;;;;;2073965;28;20280;-55
2022/06/14 01:24:21;;;;;;;8.43;5.05;;;;;;;;;;2073600;28;20173;-55
2022/06/14 01:25:22;;;;;;;6.60;5.38;;;;;;;;;;2074436;28;20581;-52
2022/06/14 01:26:24;;;;;;;8.63;5.30;;;;;;;;;;2073915;28;20181;-51
2022/06/14 01:27:25;;;;;;;7.10;5.13;;;;;;;;;;2073689;28;20161;-53
2022/06/14 01:28:26;;;;;;;6.75;5.05;;;;;;;;;;2073942;28;20177;-56
2022/06/14 01:29:28;;;;;;;9.00;5.30;;;;;;;;;;2073707;28;20181;-55
2022/06/14 01:30:31;;;;;;;7.40;5.38;;;;;;;;;;2073674;28;20228;-55
2022/06/14 01:31:31;;;;;;;5.07;4.65;;;;;;;;;;2065688;28;20185;-53
2022/06/14 01:32:34;;;;;;;5.43;4.93;;;;;;;;;;2073923;28;20173;-56
2022/06/14 01:33:37;;;;;;;6.05;5.43;;;;;;;;;;2074502;28;20252;-55
2022/06/14 01:34:39;;;;;;;5.43;4.93;;;;;;;;;;2073611;28;20388;-54
2022/06/14 01:35:42;;;;;;;8.13;5.30;;;;;;;;;;2073604;28;20275;-56
2022/06/14 01:36:42;;;;;;;5.88;5.32;;;;;;;;;;2065680;28;20231;-57
2022/06/14 01:37:44;;;;;;;5.68;4.97;;;;;;;;;;2073512;28;20177;-54
2022/06/14 01:38:45;;;;;;;6.53;4.72;;;;;;;;;;2074172;28;20169;-53
2022/06/14 01:39:46;;;;;;;6.82;5.05;;;;;;;;;;2074087;28;20692;-55
2022/06/14 01:40:50;;;;;;;5.57;4.90;;;;;;;;;;2074118;28;20188;-56
2022/06/14 01:41:50;;;;;;;7.43;5.40;;;;;;;;;;2065447;28;20177;-56
2022/06/14 01:42:56;;;;;;;8.32;5.82;;;;;;;;;;2065594;28;20334;-56
2022/06/14 01:44:03;;;;;;;7.80;5.78;;;;;;;;;;2073795;28;20708;-51
2022/06/14 01:45:22;;;;;;;9.35;6.00;;;;;;;;;;2074329;28;20197;-52
2022/06/14 01:46:24;;;;;;;9.30;5.90;;;;;;;;;;2073090;28;20251;-52
2022/06/14 01:47:31;;;;;;;9.43;6.03;;;;;;;;;;2073664;28;20161;-50
2022/06/14 01:48:37;;;;;;;7.90;5.43;;;;;;;;;;2074279;28;20173;-54
2022/06/14 01:52:47;;;;;;;9.32;6.30;;;;;;;;;;2074257;28;20165;-56
2022/06/14 01:53:57;;;;;;;7.30;6.57;;;;;;;;;;2074530;28;20181;-55
2022/06/14 01:55:06;;;;;;;11.48;6.45;;;;;;;;;;2073495;28;20188;-50
2022/06/14 01:56:11;;;;;;;8.98;5.93;;;;;;;;;;2073721;28;20161;-54
2022/06/14 01:57:32;;;;;;;11.30;6.80;;;;;;;;;;2074216;28;20529;-58
2022/06/14 01:58:36;;;;;;;6.68;5.55;;;;;;;;;;2056697;28;20198;-55
2022/06/14 01:59:46;;;;;;;7.63;5.60;;;;;;;;;;2071360;28;20283;-53
2022/06/14 02:01:06;;;;;;;7.25;5.72;;;;;;;;;;2073789;28;20212;-57
2022/06/14 02:02:21;;;;;;;10.85;5.63;;;;;;;;;;2056724;28;20249;-53
2022/06/14 02:04:54;;;;;;;9.00;6.22;;;;;;;;;;2073100;28;20153;-56
2022/06/14 02:06:00;;;;;;;12.85;6.15;;;;;;;;;;2074195;28;20196;-54
2022/06/14 02:07:07;;;;;;;8.23;6.20;;;;;;;;;;2073723;28;20154;-54
2022/06/14 02:08:16;;;;;;;13.27;6.00;;;;;;;;;;2074066;28;20655;-57
2022/06/14 02:09:19;;;;;;;11.63;6.40;;;;;;;;;;2073918;28;20235;-57
2022/06/14 02:10:28;;;;;;;13.40;5.63;;;;;;;;;;2074023;28;20704;-51
2022/06/14 02:11:31;;;;;;;8.77;6.50;;;;;;;;;;2073816;28;20662;-57
2022/06/14 02:12:54;;;;;;;7.80;5.72;;;;;;;;;;2073871;28;20617;-55
2022/06/14 02:14:02;;;;;;;8.48;6.43;;;;;;;;;;2065692;28;20623;-56
2022/06/14 02:15:21;;;;;;;7.30;6.35;;;;;;;;;;2065862;28;20536;-57
2022/06/14 02:16:31;;;;;;;10.18;6.32;;;;;;;;;;2065935;28;20220;-54
2022/06/14 02:17:35;;;;;;;6.57;5.88;;;;;;;;;;2065854;28;20150;-56
2022/06/14 02:18:55;;;;;;;8.52;6.85;;;;;;;;;;2064966;28;20201;-56
2022/06/14 02:19:59;;;;;;;9.95;6.85;;;;;;;;;;2065739;28;20701;-55
2022/06/14 02:21:13;;;;;;;10.05;6.20;;;;;;;;;;2065894;28;20536;-56
2022/06/14 02:22:14;;;;;;;16.40;7.05;;;;;;;;;;2065956;28;20216;-50
2022/06/14 02:23:15;;;;;;;12.93;7.03;;;;;;;;;;2070812;28;20256;-52
2022/06/14 02:24:22;;;;;;;6.50;5.35;;;;;;;;;;2073045;28;20204;-55
2022/06/14 02:25:34;;;;;;;11.40;7.10;;;;;;;;;;2073556;28;20236;-55
2022/06/14 02:26:41;;;;;;;7.47;6.10;;;;;;;;;;2073916;28;20251;-55
2022/06/14 02:27:51;;;;;;;10.68;6.97;;;;;;;;;;2074168;28;20177;-56
2022/06/14 02:28:53;;;;;;;10.75;6.43;;;;;;;;;;2073998;28;20727;-52
2022/06/14 02:30:14;;;;;;;9.68;6.05;;;;;;;;;;2084090;22;20208;-51
2022/06/14 02:31:18;;;;;;;8.23;6.10;;;;;;;;;;2078022;28;20211;-54
2022/06/14 02:32:34;;;;;;;11.35;6.07;;;;;;;;;;2080656;28;20255;-56
2022/06/14 02:33:37;;;;;;;10.00;5.97;;;;;;;;;;2081601;28;20168;-53
2022/06/14 02:34:42;;;;;;;6.47;5.80;;;;;;;;;;2079878;28;20243;-58
2022/06/14 02:35:52;;;;;;;9.95;6.45;;;;;;;;;;2081047;28;20184;-54
2022/06/14 02:37:09;;;;;;;12.05;6.35;;;;;;;;;;2080878;28;20243;-61
2022/06/14 02:38:09;;;;;;;10.38;6.03;;;;;;;;;;2073059;28;20171;-53
2022/06/14 02:39:16;;;;;;;10.55;5.88;;;;;;;;;;2079209;28;20172;-53
2022/06/14 02:40:23;;;;;;;10.00;5.72;;;;;;;;;;2081399;28;20713;-56
2022/06/14 02:41:27;;;;;;;9.85;5.50;;;;;;;;;;2081718;28;20267;-56
2022/06/14 02:42:33;;;;;;;8.98;6.90;;;;;;;;;;2081713;28;20168;-52
2022/06/14 02:43:38;;;;;;;8.82;5.85;;;;;;;;;;2081615;28;20192;-54
2022/06/14 02:44:41;;;;;;;7.90;5.20;;;;;;;;;;2080850;28;20183;-54
2022/06/14 02:45:45;;;;;;;8.27;5.93;;;;;;;;;;2081016;28;20644;-52
2022/06/14 02:46:48;;;;;;;8.40;5.45;;;;;;;;;;2073401;28;20188;-55
2022/06/14 02:47:51;;;;;;;6.88;5.60;;;;;;;;;;2081043;28;20164;-54
2022/06/14 02:49:04;;;;;;;7.47;5.65;;;;;;;;;;2082004;28;20180;-53
2022/06/14 02:50:08;;;;;;;8.77;6.13;;;;;;;;;;2081730;28;20260;-55
2022/06/14 02:51:11;;;;;;;6.25;5.65;;;;;;;;;;2081648;28;20819;-52
2022/06/14 02:52:22;;;;;;;9.35;6.00;;;;;;;;;;2082369;28;20172;-56
2022/06/14 02:53:25;;;;;;;7.93;5.40;;;;;;;;;;2081825;28;20171;-55
2022/06/14 02:54:40;;;;;;;7.60;6.03;;;;;;;;;;2081390;28;20176;-54
2022/06/14 02:55:43;;;;;;;8.63;5.72;;;;;;;;;;2083865;28;20175;-57
2022/06/14 02:56:49;;;;;;;5.53;5.00;;;;;;;;;;2082799;28;20587;-56
2022/06/14 02:58:01;;;;;;;7.53;6.50;;;;;;;;;;2081773;28;20239;-54
2022/06/14 02:59:05;;;;;;;11.00;6.40;;;;;;;;;;2081678;28;20168;-59
2022/06/14 03:00:05;;;;;;;8.60;5.78;;;;;;;;;;2081514;28;20207;-59
2022/06/14 03:01:18;;;;;;;10.73;6.50;;;;;;;;;;2081620;28;20251;-52
2022/06/14 03:02:21;;;;;;;12.93;6.38;;;;;;;;;;2081742;28;20645;-55
2022/06/14 03:03:25;;;;;;;8.85;5.88;;;;;;;;;;2081599;28;20646;-55
2022/06/14 03:04:34;;;;;;;9.32;5.90;;;;;;;;;;2080758;28;20190;-54
2022/06/14 03:05:43;;;;;;;10.60;5.40;;;;;;;;;;2081232;28;20277;-55
2022/06/14 03:06:50;;;;;;;7.18;6.05;;;;;;;;;;2081397;28;20600;-53
2022/06/14 03:08:03;;;;;;;10.68;5.93;;;;;;;;;;2081728;28;20255;-55
2022/06/14 03:09:15;;;;;;;10.32;5.70;;;;;;;;;;2081613;28;20201;-55
2022/06/14 03:10:15;;;;;;;8.13;4.90;;;;;;;;;;2081404;28;20199;-56
2022/06/14 03:11:25;;;;;;;7.40;5.60;;;;;;;;;;2081037;28;20165;-55
2022/06/14 03:12:28;;;;;;;6.43;5.70;;;;;;;;;;2073430;28;20177;-52
2022/06/14 03:13:28;;;;;;;8.45;5.50;;;;;;;;;;2073252;28;20189;-60
2022/06/14 03:14:41;;;;;;;6.68;5.53;;;;;;;;;;2072670;28;20164;-56
2022/06/14 03:15:44;;;;;;;9.05;5.15;;;;;;;;;;2073358;28;20204;-56
2022/06/14 03:17:03;;;;;;;7.13;5.53;;;;;;;;;;2077116;28;20168;-55
2022/06/14 03:18:22;;;;;;;8.45;5.80;;;;;;;;;;2081707;28;20167;-55
2022/06/14 03:19:26;;;;;;;6.18;5.68;;;;;;;;;;2080969;28;20557;-52
2022/06/14 03:20:29;;;;;;;7.38;6.28;;;;;;;;;;2080993;28;20287;-56
2022/06/14 03:21:35;;;;;;;5.90;5.10;;;;;;;;;;2081492;28;20172;-58
2022/06/14 03:22:35;;;;;;;9.43;5.47;;;;;;;;;;2081647;28;20603;-53
2022/06/14 03:23:49;;;;;;;5.78;4.72;;;;;;;;;;2085380;28;20176;-60
2022/06/14 03:24:55;;;;;;;6.68;5.40;;;;;;;;;;2086529;28;20179;-60
2022/06/14 03:26:00;;;;;;;8.60;5.45;;;;;;;;;;2085944;28;20155;-58
2022/06/14 03:27:09;;;;;;;5.57;4.38;;;;;;;;;;2084949;28;20537;-56
2022/06/14 03:28:12;;;;;;;5.85;4.82;;;;;;;;;;2083793;28;20164;-57
2022/06/14 03:29:26;;;;;;;7.90;5.28;;;;;;;;;;2084679;28;20671;-59
2022/06/14 03:30:34;;;;;;;5.75;5.18;;;;;;;;;;2083066;28;20199;-56
2022/06/14 03:31:37;;;;;;;6.97;5.10;;;;;;;;;;2082797;28;20160;-58
2022/06/14 03:32:43;;;;;;;6.40;5.20;;;;;;;;;;2081544;28;20243;-59
2022/06/14 03:33:46;;;;;;;6.63;4.93;;;;;;;;;;2078683;28;20173;-58
2022/06/14 03:34:49;;;;;;;6.50;4.78;;;;;;;;;;2081274;28;20230;-58
2022/06/14 03:35:52;;;;;;;4.95;4.55;;;;;;;;;;2082493;28;20191;-58
2022/06/14 03:36:53;;;;;;;6.57;5.57;;;;;;;;;;2081857;28;20211;-58
2022/06/14 03:37:55;;;;;;;5.95;5.25;;;;;;;;;;2082421;28;20688;-58
2022/06/14 03:39:13;;;;;;;12.10;5.53;;;;;;;;;;2080911;28;20168;-57
2022/06/14 03:40:17;;;;;;;5.47;4.97;;;;;;;;;;2081851;28;20257;-52
2022/06/14 03:41:20;;;;;;;6.03;4.97;;;;;;;;;;2081719;28;20168;-58
2022/06/14 03:42:20;;;;;;;5.95;5.30;;;;;;;;;;2080364;28;20176;-54
2022/06/14 03:43:20;;;;;;;6.25;5.20;;;;;;;;;;2081872;28;20681;-56
2022/06/14 03:44:23;;;;;;;5.28;4.55;;;;;;;;;;2080988;28;20172;-52
2022/06/14 03:45:28;;;;;;;5.40;4.85;;;;;;;;;;2081485;28;20215;-54
2022/06/14 03:46:31;;;;;;;6.63;5.47;;;;;;;;;;2081525;28;20192;-56
2022/06/14 03:47:33;;;;;;;5.47;4.97;;;;;;;;;;2081578;28;20168;-54
2022/06/14 03:48:35;;;;;;;7.38;5.30;;;;;;;;;;2081474;28;20164;-52
2022/06/14 03:49:37;;;;;;;7.85;5.95;;;;;;;;;;2081387;28;20175;-54
2022/06/14 03:50:46;;;;;;;10.50;5.57;;;;;;;;;;2081193;28;20261;-57
2022/06/14 03:51:46;;;;;;;6.72;4.85;;;;;;;;;;2081298;28;20264;-55
2022/06/14 03:53:03;;;;;;;6.03;5.50;;;;;;;;;;2080620;28;20172;-52
2022/06/14 03:54:15;;;;;;;5.45;4.97;;;;;;;;;;2079926;28;20159;-53
2022/06/14 03:55:28;;;;;;;7.53;5.40;;;;;;;;;;2081287;28;20180;-52
2022/06/14 03:56:57;;;;;;;8.32;5.30;;;;;;;;;;2081268;28;20172;-54
2022/06/14 03:57:58;;;;;;;5.05;4.68;;;;;;;;;;2072115;28;20187;-54
2022/06/14 03:59:13;;;;;;;7.88;5.30;;;;;;;;;;2081142;28;20586;-55
2022/06/14 04:00:19;;;;;;;6.75;5.05;;;;;;;;;;2081275;28;20381;-55
2022/06/14 04:01:21;;;;;;;5.63;5.13;;;;;;;;;;2073092;28;20252;-54
2022/06/14 04:02:22;;;;;;;5.63;5.00;;;;;;;;;;2073084;28;20597;-55
2022/06/14 04:03:25;;;;;;;5.93;5.00;;;;;;;;;;2073106;28;20184;-56
2022/06/14 04:04:44;;;;;;;5.43;4.88;;;;;;;;;;2072312;28;20173;-52
2022/06/14 04:05:44;;;;;;;7.43;5.20;;;;;;;;;;2077236;28;20221;-55
2022/06/14 04:06:45;;;;;;;8.68;5.68;;;;;;;;;;2081271;28;20218;-54
2022/06/14 04:07:51;;;;;;;5.47;4.93;;;;;;;;;;2081149;28;20641;-57
2022/06/14 04:09:00;;;;;;;5.85;5.05;;;;;;;;;;2081302;28;20160;-53
2022/06/14 04:10:17;;;;;;;5.95;5.13;;;;;;;;;;2081097;28;20197;-52
2022/06/14 04:11:41;;;;;;;8.60;5.35;;;;;;;;;;2081130;28;20172;-51
2022/06/14 04:12:59;;;;;;;7.18;5.03;;;;;;;;;;2080666;28;20200;-55
2022/06/14 04:14:14;;;;;;;5.82;5.10;;;;;;;;;;2079854;28;20610;-58
2022/06/14 04:15:14;;;;;;;7.75;4.80;;;;;;;;;;2073163;28;20218;-54
2022/06/14 04:16:18;;;;;;;6.22;5.10;;;;;;;;;;2073119;28;20181;-52
2022/06/14 04:17:22;;;;;;;6.15;4.85;;;;;;;;;;2073349;28;20533;-51
2022/06/14 04:18:40;;;;;;;5.75;5.18;;;;;;;;;;2072377;28;20225;-56
2022/06/14 04:19:54;;;;;;;7.90;5.20;;;;;;;;;;2077356;28;20275;-57
2022/06/14 04:20:57;;;;;;;4.80;4.40;;;;;;;;;;2081406;28;20223;-56
2022/06/14 04:22:20;;;;;;;5.05;4.47;;;;;;;;;;2081286;28;20214;-52
2022/06/14 04:23:39;;;;;;;8.13;5.15;;;;;;;;;;2081345;28;20203;-55
2022/06/14 04:25:01;;;;;;;7.40;4.85;;;;;;;;;;2079919;28;20258;-54
2022/06/14 04:26:07;;;;;;;7.40;4.65;;;;;;;;;;2081200;28;20596;-56
2022/06/14 04:27:13;;;;;;;5.95;4.88;;;;;;;;;;2082240;28;20157;-55
2022/06/14 04:28:32;;;;;;;5.47;4.57;;;;;;;;;;2080864;28;20262;-52
2022/06/14 04:29:39;;;;;;;5.63;5.10;;;;;;;;;;2081645;28;20260;-54
2022/06/14 04:31:02;;;;;;;6.53;4.32;;;;;;;;;;2080414;28;20211;-56
2022/06/14 04:32:03;;;;;;;6.03;5.32;;;;;;;;;;2067276;28;20592;-55
2022/06/14 04:33:10;;;;;;;6.22;5.07;;;;;;;;;;2080262;28;20223;-56
2022/06/14 04:34:19;;;;;;;6.10;5.20;;;;;;;;;;2079886;28;20168;-52
2022/06/14 04:35:19;;;;;;;8.45;4.80;;;;;;;;;;2080662;28;20171;-54
2022/06/14 04:36:31;;;;;;;6.43;5.72;;;;;;;;;;2081204;28;20186;-52
2022/06/14 04:37:31;;;;;;;5.63;5.03;;;;;;;;;;2081300;28;20207;-54
2022/06/14 04:38:34;;;;;;;5.72;5.15;;;;;;;;;;2078014;28;20272;-50
2022/06/14 04:39:41;;;;;;;5.10;4.55;;;;;;;;;;2077340;28;20194;-55
2022/06/14 04:40:56;;;;;;;6.90;5.30;;;;;;;;;;2080699;28;20188;-57
2022/06/14 04:42:18;;;;;;;5.68;5.20;;;;;;;;;;2081156;28;20180;-57
2022/06/14 04:43:21;;;;;;;8.70;4.95;;;;;;;;;;2081784;28;20246;-56
2022/06/14 04:44:26;;;;;;;8.50;5.30;;;;;;;;;;2081317;28;20645;-53
2022/06/14 04:45:32;;;;;;;6.63;5.28;;;;;;;;;;2082425;28;20693;-55
2022/06/14 04:46:36;;;;;;;8.63;5.07;;;;;;;;;;2082858;28;20214;-53
2022/06/14 04:47:39;;;;;;;7.80;5.68;;;;;;;;;;2074482;28;20164;-57
2022/06/14 04:48:55;;;;;;;6.78;5.47;;;;;;;;;;2082787;28;20203;-54
2022/06/14 04:50:04;;;;;;;6.43;5.45;;;;;;;;;;2082211;28;20555;-53
2022/06/14 04:51:06;;;;;;;8.20;5.13;;;;;;;;;;2081564;28;20195;-52
2022/06/14 04:52:10;;;;;;;7.10;5.72;;;;;;;;;;2073872;28;20184;-54
2022/06/14 04:53:17;;;;;;;7.95;5.43;;;;;;;;;;2086315;28;20171;-53
2022/06/14 04:54:34;;;;;;;7.47;5.57;;;;;;;;;;2083712;28;20188;-52
2022/06/14 04:55:43;;;;;;;10.32;5.55;;;;;;;;;;2082855;28;20693;-52
2022/06/14 04:56:47;;;;;;;8.32;6.50;;;;;;;;;;2078018;28;20157;-57
2022/06/14 04:57:50;;;;;;;7.57;6.00;;;;;;;;;;2090843;28;20170;-51
2022/06/14 04:58:53;;;;;;;9.35;5.75;;;;;;;;;;2087404;28;20639;-55
2022/06/14 04:59:53;;;;;;;7.88;5.97;;;;;;;;;;2073611;28;20587;-54
2022/06/14 05:00:56;;;;;;;10.05;7.05;;;;;;;;;;2073727;28;20169;-55
2022/06/14 05:01:59;;;;;;;9.73;6.07;;;;;;;;;;2082192;28;20173;-54
2022/06/14 05:02:59;;;;;;;7.97;6.40;;;;;;;;;;2082399;28;20200;-51
2022/06/14 05:04:06;;;;;;;9.73;6.20;;;;;;;;;;2082524;28;20168;-51
2022/06/14 05:05:08;;;;;;;13.23;7.75;;;;;;;;;;2082711;28;20177;-55
2022/06/14 05:06:11;;;;;;;9.18;6.28;;;;;;;;;;2082356;28;20692;-52
2022/06/14 05:07:14;;;;;;;9.00;6.97;;;;;;;;;;2082491;28;20172;-54
2022/06/14 05:08:28;;;;;;;10.93;8.98;;;;;;;;;;2082309;28;20567;-55
2022/06/14 05:09:34;;;;;;;8.68;6.20;;;;;;;;;;2082473;28;20616;-51
2022/06/14 05:10:36;;;;;;;9.23;6.45;;;;;;;;;;2082420;28;20800;-53
2022/06/14 05:11:49;;;;;;;14.13;6.50;;;;;;;;;;2073744;28;20160;-52
2022/06/14 05:13:02;;;;;;;12.52;7.07;;;;;;;;;;2075616;28;20529;-53
2022/06/14 05:14:05;;;;;;;8.50;5.07;;;;;;;;;;2081496;28;20207;-57
2022/06/14 05:15:09;;;;;;;7.25;5.88;;;;;;;;;;2082517;28;20640;-55
2022/06/14 05:16:16;;;;;;;6.13;5.00;;;;;;;;;;2082203;28;20223;-55
2022/06/14 05:17:19;;;;;;;14.75;7.68;;;;;;;;;;2081949;28;20156;-51
2022/06/14 05:18:24;;;;;;;14.15;10.88;;;;;;;;;;2082599;28;20179;-54
2022/06/14 05:19:30;;;;;;;12.07;10.75;;;;;;;;;;2089281;28;20182;-53
2022/06/14 05:20:34;;;;;;;12.35;6.60;;;;;;;;;;2086981;28;20204;-57
2022/06/14 05:21:53;;;;;;;8.70;7.47;;;;;;;;;;2082253;28;20180;-56
2022/06/14 05:22:58;;;;;;;11.68;10.32;;;;;;;;;;2082346;28;20661;-54
2022/06/14 05:23:59;;;;;;;10.20;7.28;;;;;;;;;;2081623;28;20176;-51
2022/06/14 05:25:00;;;;;;;9.57;8.07;;;;;;;;;;2082190;28;20160;-53
2022/06/14 05:26:00;;;;;;;8.73;6.80;;;;;;;;;;2082394;28;20176;-58
2022/06/14 05:27:16;;;;;;;12.57;7.53;;;;;;;;;;2082332;28;20169;-53
2022/06/14 05:28:22;;;;;;;8.32;6.43;;;;;;;;;;2082520;28;20169;-57
2022/06/14 05:29:29;;;;;;;13.15;7.95;;;;;;;;;;2082551;28;20247;-57
2022/06/14 05:30:45;;;;;;;9.32;7.60;;;;;;;;;;2082227;28;20279;-56
2022/06/14 05:32:05;;;;;;;7.57;5.70;;;;;;;;;;2082262;28;20188;-57
2022/06/14 05:33:07;;;;;;;11.23;7.38;;;;;;;;;;2073265;28;20185;-58
2022/06/14 05:34:17;;;;;;;9.73;6.88;;;;;;;;;;2078195;28;20593;-56
2022/06/14 05:35:32;;;;;;;9.60;5.82;;;;;;;;;;2089723;28;20167;-56
2022/06/14 05:36:36;;;;;;;10.40;5.65;;;;;;;;;;2083728;28;20180;-58
2022/06/14 05:37:36;;;;;;;10.07;6.07;;;;;;;;;;2089817;28;20184;-56
2022/06/14 05:38:39;;;;;;;11.85;7.25;;;;;;;;;;2084647;28;20164;-50
2022/06/14 05:39:47;;;;;;;7.65;6.50;;;;;;;;;;2082482;28;20180;-52
2022/06/14 05:41:00;;;;;;;9.63;6.80;;;;;;;;;;2082531;28;20153;-52
2022/06/14 05:42:17;;;;;;;11.05;6.70;;;;;;;;;;2082039;28;20248;-56
2022/06/14 05:43:26;;;;;;;12.75;6.97;;;;;;;;;;2082326;28;20190;-57
2022/06/14 05:44:30;;;;;;;9.43;6.38;;;;;;;;;;2081654;28;20172;-56
2022/06/14 05:45:31;;;;;;;7.90;5.30;;;;;;;;;;2082398;28;20204;-51
2022/06/14 05:46:38;;;;;;;11.30;6.85;;;;;;;;;;2082467;28;20221;-54
2022/06/14 05:47:42;;;;;;;11.20;6.63;;;;;;;;;;2082149;28;20633;-53
2022/06/14 05:48:45;;;;;;;9.10;6.80;;;;;;;;;;2082304;28;20160;-56
2022/06/14 05:49:52;;;;;;;11.18;6.35;;;;;;;;;;2082319;28;20176;-63
2022/06/14 05:50:54;;;;;;;8.63;6.47;;;;;;;;;;2089117;28;20174;-62
2022/06/14 05:52:13;;;;;;;9.90;6.20;;;;;;;;;;2090048;28;20171;-61
2022/06/14 05:53:13;;;;;;;9.65;5.88;;;;;;;;;;2090151;28;20171;-64
2022/06/14 05:54:13;;;;;;;9.07;6.22;;;;;;;;;;2080847;28;20176;-62
2022/06/14 05:55:25;;;;;;;10.20;7.00;;;;;;;;;;2081670;28;20176;-61
2022/06/14 05:56:31;;;;;;;10.57;6.78;;;;;;;;;;2090498;28;20624;-61
2022/06/14 05:57:39;;;;;;;13.55;6.93;;;;;;;;;;2090457;28;20152;-62
2022/06/14 05:58:44;;;;;;;9.65;6.72;;;;;;;;;;2078707;28;20183;-59
2022/06/14 06:00:03;;;;;;;11.90;6.72;;;;;;;;;;2065758;28;20181;-59
2022/06/14 06:01:11;;;;;;;9.07;6.53;;;;;;;;;;2082044;28;20238;-61
2022/06/14 06:02:21;;;;;;;11.98;6.82;;;;;;;;;;2081964;28;20168;-65
2022/06/14 06:03:40;;;;;;;9.90;7.72;;;;;;;;;;2082383;28;20644;-64
2022/06/14 06:04:46;;;;;;;10.10;6.65;;;;;;;;;;2081118;28;20203;-65
2022/06/14 06:06:03;;;;;;;10.73;6.60;;;;;;;;;;2081650;28;20642;-61
2022/06/14 06:07:06;;;;;;;7.78;6.35;;;;;;;;;;2081827;28;20683;-68
2022/06/14 06:08:17;;;;;;;15.02;6.90;;;;;;;;;;2082250;28;20855;-64
2022/06/14 06:09:21;;;;;;;11.43;6.45;;;;;;;;;;2082107;28;20585;-60
2022/06/14 06:10:23;;;;;;;12.60;6.32;;;;;;;;;;2081878;28;20696;-66
2022/06/14 06:11:37;;;;;;;10.82;6.57;;;;;;;;;;2081357;28;20382;-59
2022/06/14 06:12:40;;;;;;;11.50;6.53;;;;;;;;;;2076166;28;20176;-63
2022/06/14 06:13:52;;;;;;;7.40;6.70;;;;;;;;;;2080998;28;20196;-62
2022/06/14 06:14:55;;;;;;;12.63;6.15;;;;;;;;;;2072814;28;20188;-65
2022/06/14 06:15:58;;;;;;;13.80;6.25;;;;;;;;;;2080628;28;20164;-54
2022/06/14 06:17:04;;;;;;;11.27;5.40;;;;;;;;;;2081600;28;20571;-52
2022/06/14 06:18:08;;;;;;;8.07;5.38;;;;;;;;;;2078988;28;20164;-54
2022/06/14 06:19:12;;;;;;;7.80;5.43;;;;;;;;;;2081812;28;20641;-52
2022/06/14 06:20:22;;;;;;;9.93;5.50;;;;;;;;;;2082050;28;20199;-55
2022/06/14 06:21:26;;;;;;;7.07;5.40;;;;;;;;;;2081743;28;20713;-59
2022/06/14 06:22:32;;;;;;;8.10;5.50;;;;;;;;;;2080672;28;20291;-51
2022/06/14 06:23:40;;;;;;;8.75;5.70;;;;;;;;;;2081125;28;20191;-52
2022/06/14 06:24:47;;;;;;;10.10;5.72;;;;;;;;;;2076569;28;20171;-56
2022/06/14 06:25:49;;;;;;;10.32;5.93;;;;;;;;;;2080677;28;20205;-54
2022/06/14 06:26:56;;;;;;;10.88;6.25;;;;;;;;;;2081170;28;20260;-52
2022/06/14 06:28:00;;;;;;;15.25;6.15;;;;;;;;;;2078644;28;20176;-52
2022/06/14 06:29:05;;;;;;;10.95;6.35;;;;;;;;;;2082415;28;20234;-51
2022/06/14 06:30:06;;;;;;;8.07;5.50;;;;;;;;;;2083528;28;20203;-56
2022/06/14 06:31:06;;;;;;;10.57;6.10;;;;;;;;;;2086157;28;20163;-57
2022/06/14 06:32:07;;;;;;;8.90;4.88;;;;;;;;;;2085391;28;20208;-55
2022/06/14 06:33:10;;;;;;;7.95;5.25;;;;;;;;;;2086259;28;20263;-56
2022/06/14 06:34:13;;;;;;;10.93;5.03;;;;;;;;;;2089245;28;20532;-54
2022/06/14 06:35:14;;;;;;;12.05;4.25;;;;;;;;;;2085406;28;20205;-54
2022/06/14 06:36:33;;;;;;;10.18;4.82;;;;;;;;;;2081421;28;20195;-53
2022/06/14 06:37:36;;;;;;;8.95;4.47;;;;;;;;;;2078769;28;20687;-53
2022/06/14 06:38:55;;;;;;;7.53;3.75;;;;;;;;;;2081628;28;20219;-57
2022/06/14 06:39:58;;;;;;;9.43;3.65;;;;;;;;;;2079061;28;20198;-52